sensor_id;sensor_type;location;lat;lon;timestamp;P1;durP1;ratioP1;P2;durP2;ratioP2
2542;SDS011;1116;51.502;7.414;2024-02-21T00:00:58;19.17;;;10.10;;
2542;SDS011;1116;51.502;7.414;2024-02-21T00:03:28;18.63;;;9.30;;
2542;SDS011;1116;51.502;7.414;2024-02-21T00:05:58;22.27;;;10.27;;
2542;SDS011;1116;51.502;7.414;2024-02-21T00:08:28;20.70;;;10.20;;
2542;SDS011;1116;51.502;7.414;2024-02-21T00:11:01;16.30;;;9.40;;
2542;SDS011;1116;51.502;7.414;2024-02-21T00:13:32;16.63;;;10.10;;
2542;SDS011;1116;51.502;7.414;2024-02-21T00:16:02;18.20;;;10.17;;
2542;SDS011;1116;51.502;7.414;2024-02-21T00:18:32;19.20;;;10.40;;
2542;SDS011;1116;51.502;7.414;2024-02-21T00:21:03;18.77;;;10.33;;
2542;SDS011;1116;51.502;7.414;2024-02-21T00:23:33;20.70;;;11.03;;
2542;SDS011;1116;51.502;7.414;2024-02-21T00:26:06;20.27;;;10.40;;
2542;SDS011;1116;51.502;7.414;2024-02-21T00:28:36;20.93;;;10.10;;
2542;SDS011;1116;51.502;7.414;2024-02-21T00:31:06;19.67;;;10.30;;
2542;SDS011;1116;51.502;7.414;2024-02-21T00:33:37;22.27;;;11.43;;
2542;SDS011;1116;51.502;7.414;2024-02-21T00:36:08;16.27;;;9.80;;
2542;SDS011;1116;51.502;7.414;2024-02-21T00:38:38;21.70;;;10.93;;
2542;SDS011;1116;51.502;7.414;2024-02-21T00:41:11;20.00;;;10.37;;
2542;SDS011;1116;51.502;7.414;2024-02-21T00:43:41;19.50;;;11.23;;
2542;SDS011;1116;51.502;7.414;2024-02-21T00:46:11;19.17;;;10.80;;
2542;SDS011;1116;51.502;7.414;2024-02-21T00:48:42;19.53;;;10.00;;
2542;SDS011;1116;51.502;7.414;2024-02-21T00:51:12;19.60;;;10.60;;
2542;SDS011;1116;51.502;7.414;2024-02-21T00:53:42;18.83;;;10.50;;
2542;SDS011;1116;51.502;7.414;2024-02-21T00:56:15;18.70;;;11.10;;
2542;SDS011;1116;51.502;7.414;2024-02-21T00:58:46;20.10;;;10.87;;
2542;SDS011;1116;51.502;7.414;2024-02-21T01:01:20;20.47;;;10.73;;
2542;SDS011;1116;51.502;7.414;2024-02-21T01:03:51;16.90;;;10.60;;
2542;SDS011;1116;51.502;7.414;2024-02-21T01:06:22;26.53;;;11.07;;
2542;SDS011;1116;51.502;7.414;2024-02-21T01:08:52;21.73;;;11.00;;
2542;SDS011;1116;51.502;7.414;2024-02-21T01:11:26;18.03;;;11.10;;
2542;SDS011;1116;51.502;7.414;2024-02-21T01:13:56;26.03;;;11.00;;
2542;SDS011;1116;51.502;7.414;2024-02-21T01:16:26;21.70;;;11.40;;
2542;SDS011;1116;51.502;7.414;2024-02-21T01:18:56;19.87;;;11.17;;
2542;SDS011;1116;51.502;7.414;2024-02-21T01:21:28;24.80;;;12.73;;
2542;SDS011;1116;51.502;7.414;2024-02-21T01:23:59;18.00;;;10.40;;
2542;SDS011;1116;51.502;7.414;2024-02-21T01:26:31;23.13;;;11.93;;
2542;SDS011;1116;51.502;7.414;2024-02-21T01:29:01;19.23;;;9.87;;
2542;SDS011;1116;51.502;7.414;2024-02-21T01:31:31;17.90;;;11.00;;
2542;SDS011;1116;51.502;7.414;2024-02-21T01:34:02;26.00;;;11.97;;
2542;SDS011;1116;51.502;7.414;2024-02-21T01:36:32;20.47;;;11.23;;
2542;SDS011;1116;51.502;7.414;2024-02-21T01:39:03;23.97;;;11.53;;
2542;SDS011;1116;51.502;7.414;2024-02-21T01:41:36;22.20;;;12.17;;
2542;SDS011;1116;51.502;7.414;2024-02-21T01:44:06;19.43;;;11.10;;
2542;SDS011;1116;51.502;7.414;2024-02-21T01:46:36;17.73;;;10.80;;
2542;SDS011;1116;51.502;7.414;2024-02-21T01:49:07;18.23;;;11.10;;
2542;SDS011;1116;51.502;7.414;2024-02-21T01:51:37;21.20;;;11.40;;
2542;SDS011;1116;51.502;7.414;2024-02-21T01:54:08;23.33;;;11.40;;
2542;SDS011;1116;51.502;7.414;2024-02-21T01:56:43;23.47;;;10.83;;
2542;SDS011;1116;51.502;7.414;2024-02-21T01:59:14;18.73;;;11.00;;
2542;SDS011;1116;51.502;7.414;2024-02-21T02:01:46;19.57;;;11.20;;
2542;SDS011;1116;51.502;7.414;2024-02-21T02:04:16;18.20;;;10.40;;
2542;SDS011;1116;51.502;7.414;2024-02-21T02:06:47;16.37;;;10.80;;
2542;SDS011;1116;51.502;7.414;2024-02-21T02:09:18;27.07;;;11.67;;
2542;SDS011;1116;51.502;7.414;2024-02-21T02:11:50;22.77;;;10.07;;
2542;SDS011;1116;51.502;7.414;2024-02-21T02:14:20;22.50;;;11.60;;
2542;SDS011;1116;51.502;7.414;2024-02-21T02:16:53;17.70;;;10.60;;
2542;SDS011;1116;51.502;7.414;2024-02-21T02:19:23;19.17;;;11.50;;
2542;SDS011;1116;51.502;7.414;2024-02-21T02:21:55;17.53;;;10.50;;
2542;SDS011;1116;51.502;7.414;2024-02-21T02:24:32;18.60;;;10.90;;
2542;SDS011;1116;51.502;7.414;2024-02-21T02:27:02;18.13;;;10.60;;
2542;SDS011;1116;51.502;7.414;2024-02-21T02:29:33;20.87;;;11.13;;
2542;SDS011;1116;51.502;7.414;2024-02-21T02:32:03;21.80;;;10.87;;
2542;SDS011;1116;51.502;7.414;2024-02-21T02:34:34;21.40;;;10.97;;
2542;SDS011;1116;51.502;7.414;2024-02-21T02:37:04;19.97;;;10.97;;
2542;SDS011;1116;51.502;7.414;2024-02-21T02:39:37;19.73;;;10.37;;
2542;SDS011;1116;51.502;7.414;2024-02-21T02:42:07;22.90;;;11.30;;
2542;SDS011;1116;51.502;7.414;2024-02-21T02:44:37;22.73;;;10.90;;
2542;SDS011;1116;51.502;7.414;2024-02-21T02:47:08;18.50;;;11.57;;
2542;SDS011;1116;51.502;7.414;2024-02-21T02:49:39;20.60;;;11.23;;
2542;SDS011;1116;51.502;7.414;2024-02-21T02:52:09;21.50;;;10.40;;
2542;SDS011;1116;51.502;7.414;2024-02-21T02:54:42;22.03;;;10.87;;
2542;SDS011;1116;51.502;7.414;2024-02-21T02:57:12;18.23;;;10.83;;
2542;SDS011;1116;51.502;7.414;2024-02-21T02:59:42;22.80;;;11.97;;
2542;SDS011;1116;51.502;7.414;2024-02-21T03:02:16;20.13;;;10.60;;
2542;SDS011;1116;51.502;7.414;2024-02-21T03:04:47;23.57;;;11.27;;
2542;SDS011;1116;51.502;7.414;2024-02-21T03:07:17;18.73;;;10.57;;
2542;SDS011;1116;51.502;7.414;2024-02-21T03:09:50;24.13;;;10.70;;
2542;SDS011;1116;51.502;7.414;2024-02-21T03:12:21;25.63;;;10.10;;
2542;SDS011;1116;51.502;7.414;2024-02-21T03:14:54;22.47;;;10.23;;
2542;SDS011;1116;51.502;7.414;2024-02-21T03:17:24;16.80;;;9.70;;
2542;SDS011;1116;51.502;7.414;2024-02-21T03:19:56;14.93;;;10.80;;
2542;SDS011;1116;51.502;7.414;2024-02-21T03:22:26;22.80;;;10.50;;
2542;SDS011;1116;51.502;7.414;2024-02-21T03:24:59;20.97;;;10.00;;
2542;SDS011;1116;51.502;7.414;2024-02-21T03:27:29;18.60;;;9.37;;
2542;SDS011;1116;51.502;7.414;2024-02-21T03:29:59;14.80;;;9.70;;
2542;SDS011;1116;51.502;7.414;2024-02-21T03:32:31;23.90;;;10.43;;
2542;SDS011;1116;51.502;7.414;2024-02-21T03:35:01;17.20;;;10.10;;
2542;SDS011;1116;51.502;7.414;2024-02-21T03:37:31;14.60;;;9.47;;
2542;SDS011;1116;51.502;7.414;2024-02-21T03:40:05;18.27;;;9.10;;
2542;SDS011;1116;51.502;7.414;2024-02-21T03:42:37;21.17;;;9.97;;
2542;SDS011;1116;51.502;7.414;2024-02-21T03:45:08;22.30;;;9.77;;
2542;SDS011;1116;51.502;7.414;2024-02-21T03:47:38;17.37;;;9.67;;
2542;SDS011;1116;51.502;7.414;2024-02-21T03:50:09;17.60;;;9.80;;
2542;SDS011;1116;51.502;7.414;2024-02-21T03:52:39;18.07;;;9.50;;
2542;SDS011;1116;51.502;7.414;2024-02-21T03:55:12;19.67;;;9.30;;
2542;SDS011;1116;51.502;7.414;2024-02-21T03:57:42;16.50;;;9.40;;
2542;SDS011;1116;51.502;7.414;2024-02-21T04:00:13;18.13;;;9.93;;
2542;SDS011;1116;51.502;7.414;2024-02-21T04:02:44;14.93;;;9.13;;
2542;SDS011;1116;51.502;7.414;2024-02-21T04:05:15;17.73;;;10.20;;
2542;SDS011;1116;51.502;7.414;2024-02-21T04:07:45;17.40;;;9.77;;
2542;SDS011;1116;51.502;7.414;2024-02-21T04:10:18;15.57;;;9.37;;
2542;SDS011;1116;51.502;7.414;2024-02-21T04:12:49;14.60;;;9.13;;
2542;SDS011;1116;51.502;7.414;2024-02-21T04:15:19;16.93;;;9.70;;
2542;SDS011;1116;51.502;7.414;2024-02-21T04:17:49;16.47;;;9.13;;
2542;SDS011;1116;51.502;7.414;2024-02-21T04:20:20;12.33;;;8.43;;
2542;SDS011;1116;51.502;7.414;2024-02-21T04:22:50;16.77;;;8.87;;
2542;SDS011;1116;51.502;7.414;2024-02-21T04:25:23;16.37;;;9.33;;
2542;SDS011;1116;51.502;7.414;2024-02-21T04:27:53;17.00;;;8.77;;
2542;SDS011;1116;51.502;7.414;2024-02-21T04:30:24;18.23;;;9.70;;
2542;SDS011;1116;51.502;7.414;2024-02-21T04:32:54;15.30;;;8.97;;
2542;SDS011;1116;51.502;7.414;2024-02-21T04:35:24;17.73;;;9.33;;
2542;SDS011;1116;51.502;7.414;2024-02-21T04:37:55;22.00;;;9.40;;
2542;SDS011;1116;51.502;7.414;2024-02-21T04:40:27;16.03;;;10.17;;
2542;SDS011;1116;51.502;7.414;2024-02-21T04:42:58;16.67;;;9.60;;
2542;SDS011;1116;51.502;7.414;2024-02-21T04:45:28;17.90;;;9.00;;
2542;SDS011;1116;51.502;7.414;2024-02-21T04:47:58;12.37;;;8.80;;
2542;SDS011;1116;51.502;7.414;2024-02-21T04:50:28;14.33;;;9.00;;
2542;SDS011;1116;51.502;7.414;2024-02-21T04:52:58;19.40;;;8.97;;
2542;SDS011;1116;51.502;7.414;2024-02-21T04:55:31;16.53;;;9.50;;
2542;SDS011;1116;51.502;7.414;2024-02-21T04:58:01;17.23;;;8.87;;
2542;SDS011;1116;51.502;7.414;2024-02-21T05:00:32;16.77;;;9.40;;
2542;SDS011;1116;51.502;7.414;2024-02-21T05:03:02;17.57;;;8.90;;
2542;SDS011;1116;51.502;7.414;2024-02-21T05:05:33;16.30;;;8.80;;
2542;SDS011;1116;51.502;7.414;2024-02-21T05:08:04;13.87;;;8.50;;
2542;SDS011;1116;51.502;7.414;2024-02-21T05:10:37;14.50;;;8.70;;
2542;SDS011;1116;51.502;7.414;2024-02-21T05:13:07;12.90;;;7.50;;
2542;SDS011;1116;51.502;7.414;2024-02-21T05:15:39;16.50;;;8.60;;
2542;SDS011;1116;51.502;7.414;2024-02-21T05:18:09;14.60;;;8.63;;
2542;SDS011;1116;51.502;7.414;2024-02-21T05:20:40;20.03;;;9.47;;
2542;SDS011;1116;51.502;7.414;2024-02-21T05:23:10;15.93;;;7.83;;
2542;SDS011;1116;51.502;7.414;2024-02-21T05:25:43;22.60;;;9.03;;
2542;SDS011;1116;51.502;7.414;2024-02-21T05:28:13;13.67;;;8.67;;
2542;SDS011;1116;51.502;7.414;2024-02-21T05:30:44;17.93;;;8.83;;
2542;SDS011;1116;51.502;7.414;2024-02-21T05:33:14;13.60;;;7.80;;
2542;SDS011;1116;51.502;7.414;2024-02-21T05:35:48;12.90;;;8.17;;
2542;SDS011;1116;51.502;7.414;2024-02-21T05:38:18;13.30;;;7.80;;
2542;SDS011;1116;51.502;7.414;2024-02-21T05:40:51;14.60;;;9.27;;
2542;SDS011;1116;51.502;7.414;2024-02-21T05:43:21;11.97;;;8.00;;
2542;SDS011;1116;51.502;7.414;2024-02-21T05:45:51;14.90;;;7.53;;
2542;SDS011;1116;51.502;7.414;2024-02-21T05:48:24;13.20;;;8.20;;
2542;SDS011;1116;51.502;7.414;2024-02-21T05:50:55;13.50;;;7.90;;
2542;SDS011;1116;51.502;7.414;2024-02-21T05:53:25;15.10;;;7.67;;
2542;SDS011;1116;51.502;7.414;2024-02-21T05:56:00;16.57;;;8.10;;
2542;SDS011;1116;51.502;7.414;2024-02-21T05:58:31;18.50;;;7.80;;
2542;SDS011;1116;51.502;7.414;2024-02-21T06:01:01;12.73;;;7.50;;
2542;SDS011;1116;51.502;7.414;2024-02-21T06:03:33;11.70;;;6.97;;
2542;SDS011;1116;51.502;7.414;2024-02-21T06:06:04;12.10;;;7.60;;
2542;SDS011;1116;51.502;7.414;2024-02-21T06:08:35;14.37;;;7.53;;
2542;SDS011;1116;51.502;7.414;2024-02-21T06:11:08;10.43;;;7.00;;
2542;SDS011;1116;51.502;7.414;2024-02-21T06:13:39;13.17;;;7.17;;
2542;SDS011;1116;51.502;7.414;2024-02-21T06:16:09;10.80;;;6.80;;
2542;SDS011;1116;51.502;7.414;2024-02-21T06:18:39;12.50;;;6.90;;
2542;SDS011;1116;51.502;7.414;2024-02-21T06:21:09;16.00;;;7.07;;
2542;SDS011;1116;51.502;7.414;2024-02-21T06:23:43;12.70;;;6.40;;
2542;SDS011;1116;51.502;7.414;2024-02-21T06:26:16;12.77;;;7.07;;
2542;SDS011;1116;51.502;7.414;2024-02-21T06:28:46;10.83;;;6.50;;
2542;SDS011;1116;51.502;7.414;2024-02-21T06:31:17;13.50;;;6.53;;
2542;SDS011;1116;51.502;7.414;2024-02-21T06:33:47;10.63;;;6.37;;
2542;SDS011;1116;51.502;7.414;2024-02-21T06:36:17;11.90;;;5.80;;
2542;SDS011;1116;51.502;7.414;2024-02-21T06:38:48;10.33;;;6.47;;
2542;SDS011;1116;51.502;7.414;2024-02-21T06:41:21;13.23;;;6.53;;
2542;SDS011;1116;51.502;7.414;2024-02-21T06:43:50;8.17;;;5.50;;
2542;SDS011;1116;51.502;7.414;2024-02-21T06:46:24;10.60;;;5.07;;
2542;SDS011;1116;51.502;7.414;2024-02-21T06:48:56;12.60;;;5.90;;
2542;SDS011;1116;51.502;7.414;2024-02-21T06:51:27;9.90;;;5.40;;
2542;SDS011;1116;51.502;7.414;2024-02-21T06:53:57;8.70;;;5.13;;
2542;SDS011;1116;51.502;7.414;2024-02-21T06:56:30;10.73;;;5.20;;
2542;SDS011;1116;51.502;7.414;2024-02-21T06:59:00;10.03;;;5.00;;
2542;SDS011;1116;51.502;7.414;2024-02-21T07:01:30;10.83;;;4.83;;
2542;SDS011;1116;51.502;7.414;2024-02-21T07:04:03;7.60;;;4.80;;
2542;SDS011;1116;51.502;7.414;2024-02-21T07:06:33;7.00;;;4.90;;
2542;SDS011;1116;51.502;7.414;2024-02-21T07:09:04;6.97;;;4.50;;
2542;SDS011;1116;51.502;7.414;2024-02-21T07:11:36;9.13;;;4.83;;
2542;SDS011;1116;51.502;7.414;2024-02-21T07:14:06;9.63;;;4.83;;
2542;SDS011;1116;51.502;7.414;2024-02-21T07:16:37;8.97;;;4.80;;
2542;SDS011;1116;51.502;7.414;2024-02-21T07:19:07;9.10;;;4.30;;
2542;SDS011;1116;51.502;7.414;2024-02-21T07:21:37;11.30;;;5.10;;
2542;SDS011;1116;51.502;7.414;2024-02-21T07:24:08;11.60;;;5.50;;
2542;SDS011;1116;51.502;7.414;2024-02-21T07:26:43;6.70;;;4.50;;
2542;SDS011;1116;51.502;7.414;2024-02-21T07:29:13;10.73;;;5.10;;
2542;SDS011;1116;51.502;7.414;2024-02-21T07:31:43;10.80;;;4.90;;
2542;SDS011;1116;51.502;7.414;2024-02-21T07:34:15;6.50;;;4.60;;
2542;SDS011;1116;51.502;7.414;2024-02-21T07:36:46;8.73;;;5.20;;
2542;SDS011;1116;51.502;7.414;2024-02-21T07:39:16;7.53;;;4.60;;
2542;SDS011;1116;51.502;7.414;2024-02-21T07:41:48;10.60;;;5.67;;
2542;SDS011;1116;51.502;7.414;2024-02-21T07:44:18;9.30;;;5.93;;
2542;SDS011;1116;51.502;7.414;2024-02-21T07:46:49;10.33;;;5.60;;
2542;SDS011;1116;51.502;7.414;2024-02-21T07:49:19;8.40;;;4.83;;
2542;SDS011;1116;51.502;7.414;2024-02-21T07:51:50;9.67;;;5.27;;
2542;SDS011;1116;51.502;7.414;2024-02-21T07:54:20;7.20;;;4.93;;
2542;SDS011;1116;51.502;7.414;2024-02-21T07:56:53;10.43;;;5.97;;
2542;SDS011;1116;51.502;7.414;2024-02-21T07:59:23;8.87;;;6.07;;
2542;SDS011;1116;51.502;7.414;2024-02-21T08:01:55;10.07;;;6.10;;
2542;SDS011;1116;51.502;7.414;2024-02-21T08:04:26;8.20;;;5.50;;
2542;SDS011;1116;51.502;7.414;2024-02-21T08:06:57;12.17;;;6.37;;
2542;SDS011;1116;51.502;7.414;2024-02-21T08:09:30;10.17;;;5.93;;
2542;SDS011;1116;51.502;7.414;2024-02-21T08:12:04;9.10;;;5.90;;
2542;SDS011;1116;51.502;7.414;2024-02-21T08:14:36;13.60;;;6.10;;
2542;SDS011;1116;51.502;7.414;2024-02-21T08:17:06;9.13;;;5.50;;
2542;SDS011;1116;51.502;7.414;2024-02-21T08:19:36;10.00;;;6.20;;
2542;SDS011;1116;51.502;7.414;2024-02-21T08:22:06;8.40;;;5.10;;
2542;SDS011;1116;51.502;7.414;2024-02-21T08:24:36;9.00;;;5.43;;
2542;SDS011;1116;51.502;7.414;2024-02-21T08:27:09;12.80;;;6.17;;
2542;SDS011;1116;51.502;7.414;2024-02-21T08:29:39;10.10;;;5.93;;
2542;SDS011;1116;51.502;7.414;2024-02-21T08:32:09;10.20;;;6.20;;
2542;SDS011;1116;51.502;7.414;2024-02-21T08:34:39;10.20;;;5.70;;
2542;SDS011;1116;51.502;7.414;2024-02-21T08:37:09;10.63;;;4.70;;
2542;SDS011;1116;51.502;7.414;2024-02-21T08:39:40;8.93;;;4.83;;
2542;SDS011;1116;51.502;7.414;2024-02-21T08:42:13;7.63;;;4.83;;
2542;SDS011;1116;51.502;7.414;2024-02-21T08:44:43;8.20;;;5.63;;
2542;SDS011;1116;51.502;7.414;2024-02-21T08:47:13;9.50;;;5.60;;
2542;SDS011;1116;51.502;7.414;2024-02-21T08:49:43;6.47;;;4.27;;
2542;SDS011;1116;51.502;7.414;2024-02-21T08:52:14;6.60;;;4.07;;
2542;SDS011;1116;51.502;7.414;2024-02-21T08:54:45;8.63;;;4.57;;
2542;SDS011;1116;51.502;7.414;2024-02-21T08:57:17;9.40;;;4.13;;
2542;SDS011;1116;51.502;7.414;2024-02-21T08:59:47;10.83;;;4.70;;
2542;SDS011;1116;51.502;7.414;2024-02-21T09:02:17;6.77;;;4.47;;
2542;SDS011;1116;51.502;7.414;2024-02-21T09:04:47;9.63;;;4.83;;
2542;SDS011;1116;51.502;7.414;2024-02-21T09:07:18;7.93;;;5.20;;
2542;SDS011;1116;51.502;7.414;2024-02-21T09:09:48;6.40;;;4.30;;
2542;SDS011;1116;51.502;7.414;2024-02-21T09:12:22;9.70;;;6.33;;
2542;SDS011;1116;51.502;7.414;2024-02-21T09:14:52;14.70;;;6.40;;
2542;SDS011;1116;51.502;7.414;2024-02-21T09:17:22;12.00;;;7.10;;
2542;SDS011;1116;51.502;7.414;2024-02-21T09:19:56;12.27;;;6.60;;
2542;SDS011;1116;51.502;7.414;2024-02-21T09:22:30;16.07;;;7.33;;
2542;SDS011;1116;51.502;7.414;2024-02-21T09:25:02;12.63;;;6.40;;
2542;SDS011;1116;51.502;7.414;2024-02-21T09:27:35;15.70;;;7.40;;
2542;SDS011;1116;51.502;7.414;2024-02-21T09:30:06;9.53;;;6.60;;
2542;SDS011;1116;51.502;7.414;2024-02-21T09:32:38;16.63;;;6.77;;
2542;SDS011;1116;51.502;7.414;2024-02-21T09:35:08;9.90;;;6.73;;
2542;SDS011;1116;51.502;7.414;2024-02-21T09:37:39;12.10;;;7.50;;
2542;SDS011;1116;51.502;7.414;2024-02-21T09:40:10;11.00;;;7.80;;
2542;SDS011;1116;51.502;7.414;2024-02-21T09:42:43;15.00;;;9.37;;
2542;SDS011;1116;51.502;7.414;2024-02-21T09:45:18;14.10;;;9.10;;
2542;SDS011;1116;51.502;7.414;2024-02-21T09:47:50;13.80;;;8.43;;
2542;SDS011;1116;51.502;7.414;2024-02-21T09:50:34;13.73;;;8.67;;
2542;SDS011;1116;51.502;7.414;2024-02-21T09:53:07;10.00;;;8.80;;
2542;SDS011;1116;51.502;7.414;2024-02-21T09:55:37;12.37;;;10.00;;
2542;SDS011;1116;51.502;7.414;2024-02-21T09:58:11;13.23;;;10.00;;
2542;SDS011;1116;51.502;7.414;2024-02-21T10:00:42;14.87;;;8.90;;
2542;SDS011;1116;51.502;7.414;2024-02-21T10:03:12;13.97;;;9.17;;
2542;SDS011;1116;51.502;7.414;2024-02-21T10:05:46;14.60;;;9.03;;
2542;SDS011;1116;51.502;7.414;2024-02-21T10:08:19;12.17;;;7.93;;
2542;SDS011;1116;51.502;7.414;2024-02-21T10:10:50;10.57;;;7.30;;
2542;SDS011;1116;51.502;7.414;2024-02-21T10:13:26;12.60;;;8.40;;
2542;SDS011;1116;51.502;7.414;2024-02-21T10:16:04;12.83;;;7.10;;
2542;SDS011;1116;51.502;7.414;2024-02-21T10:18:35;9.40;;;7.30;;
2542;SDS011;1116;51.502;7.414;2024-02-21T10:21:06;13.20;;;8.37;;
2542;SDS011;1116;51.502;7.414;2024-02-21T10:23:40;17.67;;;8.53;;
2542;SDS011;1116;51.502;7.414;2024-02-21T10:26:12;10.30;;;7.30;;
2542;SDS011;1116;51.502;7.414;2024-02-21T10:28:45;14.90;;;9.23;;
2542;SDS011;1116;51.502;7.414;2024-02-21T10:31:22;13.87;;;8.77;;
2542;SDS011;1116;51.502;7.414;2024-02-21T10:33:54;12.63;;;8.73;;
2542;SDS011;1116;51.502;7.414;2024-02-21T10:36:25;11.30;;;8.20;;
2542;SDS011;1116;51.502;7.414;2024-02-21T10:38:56;12.27;;;8.60;;
2542;SDS011;1116;51.502;7.414;2024-02-21T10:41:26;13.37;;;8.07;;
2542;SDS011;1116;51.502;7.414;2024-02-21T10:44:00;13.07;;;7.77;;
2542;SDS011;1116;51.502;7.414;2024-02-21T10:46:34;12.13;;;7.63;;
2542;SDS011;1116;51.502;7.414;2024-02-21T10:49:07;14.60;;;8.20;;
2542;SDS011;1116;51.502;7.414;2024-02-21T10:51:42;15.40;;;8.50;;
2542;SDS011;1116;51.502;7.414;2024-02-21T10:54:16;14.20;;;7.80;;
2542;SDS011;1116;51.502;7.414;2024-02-21T10:56:58;16.70;;;7.77;;
2542;SDS011;1116;51.502;7.414;2024-02-21T10:59:34;12.43;;;7.23;;
2542;SDS011;1116;51.502;7.414;2024-02-21T11:02:06;13.33;;;7.30;;
2542;SDS011;1116;51.502;7.414;2024-02-21T11:04:37;10.40;;;6.50;;
2542;SDS011;1116;51.502;7.414;2024-02-21T11:07:09;7.40;;;6.27;;
2542;SDS011;1116;51.502;7.414;2024-02-21T11:09:39;12.93;;;6.80;;
2542;SDS011;1116;51.502;7.414;2024-02-21T11:12:10;9.07;;;6.60;;
2542;SDS011;1116;51.502;7.414;2024-02-21T11:14:43;11.50;;;6.43;;
2542;SDS011;1116;51.502;7.414;2024-02-21T11:17:16;11.83;;;8.17;;
2542;SDS011;1116;51.502;7.414;2024-02-21T11:19:48;10.20;;;7.37;;
2542;SDS011;1116;51.502;7.414;2024-02-21T11:22:19;9.70;;;7.57;;
2542;SDS011;1116;51.502;7.414;2024-02-21T11:24:51;14.43;;;8.00;;
2542;SDS011;1116;51.502;7.414;2024-02-21T11:27:22;12.20;;;7.50;;
2542;SDS011;1116;51.502;7.414;2024-02-21T11:29:57;9.03;;;7.90;;
2542;SDS011;1116;51.502;7.414;2024-02-21T11:32:31;10.40;;;7.60;;
2542;SDS011;1116;51.502;7.414;2024-02-21T11:35:01;10.27;;;7.33;;
2542;SDS011;1116;51.502;7.414;2024-02-21T11:37:34;12.43;;;6.67;;
2542;SDS011;1116;51.502;7.414;2024-02-21T11:40:07;9.77;;;6.93;;
2542;SDS011;1116;51.502;7.414;2024-02-21T11:42:39;10.20;;;6.13;;
2542;SDS011;1116;51.502;7.414;2024-02-21T11:45:14;11.17;;;6.90;;
2542;SDS011;1116;51.502;7.414;2024-02-21T11:47:47;9.00;;;6.00;;
2542;SDS011;1116;51.502;7.414;2024-02-21T11:50:17;9.43;;;5.77;;
2542;SDS011;1116;51.502;7.414;2024-02-21T11:52:48;9.57;;;6.00;;
2542;SDS011;1116;51.502;7.414;2024-02-21T11:55:18;12.07;;;6.07;;
2542;SDS011;1116;51.502;7.414;2024-02-21T11:57:49;7.70;;;5.53;;
2542;SDS011;1116;51.502;7.414;2024-02-21T12:00:22;11.40;;;5.70;;
2542;SDS011;1116;51.502;7.414;2024-02-21T12:02:53;9.47;;;5.00;;
2542;SDS011;1116;51.502;7.414;2024-02-21T12:05:29;12.60;;;6.03;;
2542;SDS011;1116;51.502;7.414;2024-02-21T12:07:59;7.30;;;5.20;;
2542;SDS011;1116;51.502;7.414;2024-02-21T12:10:30;8.73;;;5.00;;
2542;SDS011;1116;51.502;7.414;2024-02-21T12:13:07;7.50;;;5.17;;
2542;SDS011;1116;51.502;7.414;2024-02-21T12:15:40;6.73;;;4.93;;
2542;SDS011;1116;51.502;7.414;2024-02-21T12:18:10;6.60;;;4.47;;
2542;SDS011;1116;51.502;7.414;2024-02-21T12:20:42;12.00;;;5.40;;
2542;SDS011;1116;51.502;7.414;2024-02-21T12:23:12;6.83;;;3.93;;
2542;SDS011;1116;51.502;7.414;2024-02-21T12:25:43;6.67;;;4.43;;
2542;SDS011;1116;51.502;7.414;2024-02-21T12:28:16;9.40;;;5.00;;
2542;SDS011;1116;51.502;7.414;2024-02-21T12:30:51;9.40;;;3.90;;
2542;SDS011;1116;51.502;7.414;2024-02-21T12:33:21;7.33;;;3.70;;
2542;SDS011;1116;51.502;7.414;2024-02-21T12:35:51;8.70;;;4.17;;
2542;SDS011;1116;51.502;7.414;2024-02-21T12:38:22;10.17;;;3.50;;
2542;SDS011;1116;51.502;7.414;2024-02-21T12:40:52;7.40;;;3.47;;
2542;SDS011;1116;51.502;7.414;2024-02-21T12:43:23;5.67;;;3.97;;
2542;SDS011;1116;51.502;7.414;2024-02-21T12:45:56;8.13;;;3.50;;
2542;SDS011;1116;51.502;7.414;2024-02-21T12:48:26;8.07;;;3.40;;
2542;SDS011;1116;51.502;7.414;2024-02-21T12:50:56;9.00;;;4.27;;
2542;SDS011;1116;51.502;7.414;2024-02-21T12:53:26;7.50;;;3.50;;
2542;SDS011;1116;51.502;7.414;2024-02-21T12:55:59;8.37;;;3.80;;
2542;SDS011;1116;51.502;7.414;2024-02-21T12:58:32;7.87;;;3.60;;
2542;SDS011;1116;51.502;7.414;2024-02-21T13:01:05;5.37;;;3.50;;
2542;SDS011;1116;51.502;7.414;2024-02-21T13:03:36;5.43;;;3.33;;
2542;SDS011;1116;51.502;7.414;2024-02-21T13:06:06;12.10;;;3.80;;
2542;SDS011;1116;51.502;7.414;2024-02-21T13:08:37;6.03;;;3.47;;
2542;SDS011;1116;51.502;7.414;2024-02-21T13:11:07;9.40;;;3.80;;
2542;SDS011;1116;51.502;7.414;2024-02-21T13:13:37;6.03;;;3.30;;
2542;SDS011;1116;51.502;7.414;2024-02-21T13:16:10;8.27;;;4.07;;
2542;SDS011;1116;51.502;7.414;2024-02-21T13:18:40;12.70;;;4.60;;
2542;SDS011;1116;51.502;7.414;2024-02-21T13:21:17;7.60;;;3.43;;
2542;SDS011;1116;51.502;7.414;2024-02-21T13:23:47;5.83;;;3.40;;
2542;SDS011;1116;51.502;7.414;2024-02-21T13:26:17;6.40;;;3.87;;
2542;SDS011;1116;51.502;7.414;2024-02-21T13:28:47;10.17;;;3.40;;
2542;SDS011;1116;51.502;7.414;2024-02-21T13:31:19;6.13;;;3.40;;
2542;SDS011;1116;51.502;7.414;2024-02-21T13:33:52;8.80;;;3.70;;
2542;SDS011;1116;51.502;7.414;2024-02-21T13:36:22;5.73;;;3.10;;
2542;SDS011;1116;51.502;7.414;2024-02-21T13:38:52;7.50;;;3.10;;
2542;SDS011;1116;51.502;7.414;2024-02-21T13:41:22;6.47;;;3.33;;
2542;SDS011;1116;51.502;7.414;2024-02-21T13:43:53;6.53;;;3.70;;
2542;SDS011;1116;51.502;7.414;2024-02-21T13:46:25;6.67;;;3.20;;
2542;SDS011;1116;51.502;7.414;2024-02-21T13:49:02;8.60;;;3.10;;
2542;SDS011;1116;51.502;7.414;2024-02-21T13:51:34;7.30;;;3.50;;
2542;SDS011;1116;51.502;7.414;2024-02-21T13:54:07;6.73;;;3.90;;
2542;SDS011;1116;51.502;7.414;2024-02-21T13:56:41;8.67;;;3.30;;
2542;SDS011;1116;51.502;7.414;2024-02-21T13:59:11;7.30;;;3.50;;
2542;SDS011;1116;51.502;7.414;2024-02-21T14:01:45;8.40;;;3.90;;
2542;SDS011;1116;51.502;7.414;2024-02-21T14:04:16;6.30;;;3.50;;
2542;SDS011;1116;51.502;7.414;2024-02-21T14:06:46;7.60;;;3.60;;
2542;SDS011;1116;51.502;7.414;2024-02-21T14:09:17;7.37;;;3.80;;
2542;SDS011;1116;51.502;7.414;2024-02-21T14:11:48;7.00;;;4.33;;
2542;SDS011;1116;51.502;7.414;2024-02-21T14:14:18;8.53;;;3.70;;
2542;SDS011;1116;51.502;7.414;2024-02-21T14:16:51;8.10;;;3.40;;
2542;SDS011;1116;51.502;7.414;2024-02-21T14:19:22;5.00;;;3.53;;
2542;SDS011;1116;51.502;7.414;2024-02-21T14:21:53;6.33;;;4.40;;
2542;SDS011;1116;51.502;7.414;2024-02-21T14:24:23;6.77;;;3.70;;
2542;SDS011;1116;51.502;7.414;2024-02-21T14:26:54;6.90;;;3.73;;
2542;SDS011;1116;51.502;7.414;2024-02-21T14:29:24;9.83;;;4.23;;
2542;SDS011;1116;51.502;7.414;2024-02-21T14:31:58;8.13;;;4.10;;
2542;SDS011;1116;51.502;7.414;2024-02-21T14:34:28;5.00;;;3.27;;
2542;SDS011;1116;51.502;7.414;2024-02-21T14:36:58;6.30;;;3.90;;
2542;SDS011;1116;51.502;7.414;2024-02-21T14:39:30;6.47;;;3.80;;
2542;SDS011;1116;51.502;7.414;2024-02-21T14:42:02;5.87;;;3.30;;
2542;SDS011;1116;51.502;7.414;2024-02-21T14:44:32;7.10;;;4.03;;
2542;SDS011;1116;51.502;7.414;2024-02-21T14:47:05;8.40;;;4.03;;
2542;SDS011;1116;51.502;7.414;2024-02-21T14:49:35;7.23;;;3.30;;
2542;SDS011;1116;51.502;7.414;2024-02-21T14:52:05;7.17;;;3.33;;
2542;SDS011;1116;51.502;7.414;2024-02-21T14:54:37;7.33;;;3.23;;
2542;SDS011;1116;51.502;7.414;2024-02-21T14:57:11;6.27;;;3.60;;
2542;SDS011;1116;51.502;7.414;2024-02-21T14:59:41;7.60;;;3.93;;
2542;SDS011;1116;51.502;7.414;2024-02-21T15:02:14;13.87;;;4.00;;
2542;SDS011;1116;51.502;7.414;2024-02-21T15:04:44;5.50;;;4.00;;
2542;SDS011;1116;51.502;7.414;2024-02-21T15:07:14;6.40;;;3.77;;
2542;SDS011;1116;51.502;7.414;2024-02-21T15:09:44;7.73;;;3.53;;
2542;SDS011;1116;51.502;7.414;2024-02-21T15:12:15;4.30;;;3.13;;
2542;SDS011;1116;51.502;7.414;2024-02-21T15:14:45;8.53;;;4.03;;
2542;SDS011;1116;51.502;7.414;2024-02-21T15:17:17;8.10;;;3.37;;
2542;SDS011;1116;51.502;7.414;2024-02-21T15:19:47;7.43;;;3.20;;
2542;SDS011;1116;51.502;7.414;2024-02-21T15:22:17;8.87;;;3.60;;
2542;SDS011;1116;51.502;7.414;2024-02-21T15:24:48;6.80;;;3.40;;
2542;SDS011;1116;51.502;7.414;2024-02-21T15:27:18;4.50;;;3.03;;